createdAt,value
2022-08-08T00:00:55.557Z,26.90
2022-08-08T00:03:20.153Z,27.00
2022-08-08T00:06:35.274Z,27.00
2022-08-08T00:09:35.966Z,26.70
2022-08-08T00:12:31.979Z,26.60
2022-08-08T00:15:57.448Z,26.70
2022-08-08T00:18:45.474Z,26.80
2022-08-08T00:21:43.905Z,26.50
2022-08-08T00:24:38.824Z,26.50
2022-08-08T00:27:32.867Z,26.40
2022-08-08T00:30:27.830Z,26.40
2022-08-08T00:33:20.424Z,26.40
2022-08-08T00:36:25.751Z,26.50
2022-08-08T00:41:07.630Z,26.70
2022-08-08T00:43:06.077Z,26.80
2022-08-08T00:46:56.133Z,27.00
2022-08-08T00:50:25.621Z,27.10
2022-08-08T00:53:32.015Z,27.10
2022-08-08T00:57:23.402Z,27.10
2022-08-08T01:00:22.151Z,27.20
2022-08-08T01:04:02.127Z,27.10
2022-08-08T01:07:34.695Z,27.10
2022-08-08T01:11:13.501Z,27.20
2022-08-08T01:14:54.929Z,27.00
2022-08-08T01:18:25.326Z,26.70
2022-08-08T01:22:11.987Z,26.60
2022-08-08T01:25:40.817Z,26.50
2022-08-08T01:28:53.004Z,26.20
2022-08-08T01:32:31.728Z,26.10
2022-08-08T01:36:01.264Z,26.10
2022-08-08T01:39:27.941Z,25.90
2022-08-08T01:42:36.647Z,25.90
2022-08-08T01:45:42.453Z,25.90
2022-08-08T01:48:51.344Z,25.80
2022-08-08T01:52:49.688Z,25.80
2022-08-08T01:56:26.050Z,26.00
2022-08-08T01:58:39.680Z,26.20
2022-08-08T02:01:54.670Z,26.30
2022-08-08T02:05:01.937Z,26.40
2022-08-08T02:08:04.688Z,26.50
2022-08-08T02:11:07.079Z,26.50
2022-08-08T02:14:28.230Z,26.50
2022-08-08T02:17:22.772Z,26.50
2022-08-08T02:21:00.666Z,26.50
2022-08-08T02:23:32.185Z,26.40
2022-08-08T02:26:28.542Z,26.30
2022-08-08T02:29:47.046Z,26.30
2022-08-08T02:33:14.823Z,26.20
2022-08-08T02:36:23.784Z,26.20
2022-08-08T02:39:41.800Z,26.30
2022-08-08T02:44:35.807Z,26.20
2022-08-08T02:46:45.507Z,26.30
2022-08-08T02:50:17.518Z,26.30
2022-08-08T02:53:21.976Z,26.20
2022-08-08T02:56:50.890Z,26.20
2022-08-08T03:00:32.160Z,26.20
2022-08-08T03:05:04.335Z,26.10
2022-08-08T03:07:58.932Z,25.60
2022-08-08T03:12:02.025Z,25.10
2022-08-08T03:15:58.107Z,25.00
2022-08-08T03:18:30.983Z,25.30
2022-08-08T03:21:26.975Z,25.50
2022-08-08T03:24:30.963Z,25.70
2022-08-08T03:27:28.511Z,25.70
2022-08-08T03:30:25.311Z,25.80
2022-08-08T03:33:54.904Z,25.80
2022-08-08T03:36:31.122Z,25.50
2022-08-08T03:39:21.881Z,25.10
2022-08-08T03:42:30.004Z,25.20
2022-08-08T03:46:06.213Z,25.30
2022-08-08T03:49:09.082Z,25.50
2022-08-08T03:51:47.144Z,25.30
2022-08-08T03:55:02.000Z,25.20
2022-08-08T03:58:35.722Z,25.00
2022-08-08T04:01:23.572Z,25.00
2022-08-08T04:04:11.115Z,24.80
2022-08-08T04:07:04.623Z,24.90
2022-08-08T04:10:00.474Z,24.80
2022-08-08T04:12:56.751Z,24.70
2022-08-08T04:15:55.000Z,24.50
2022-08-08T04:18:54.019Z,24.50
2022-08-08T04:21:45.709Z,24.40
2022-08-08T04:24:35.267Z,24.50
2022-08-08T04:28:03.529Z,24.60
2022-08-08T04:30:44.426Z,24.70
2022-08-08T04:33:42.014Z,24.50
2022-08-08T04:36:31.132Z,24.60
2022-08-08T04:40:04.092Z,24.60
2022-08-08T04:42:33.919Z,24.50
2022-08-08T04:45:23.031Z,24.40
2022-08-08T04:48:15.030Z,24.50
2022-08-08T04:51:04.355Z,24.60
2022-08-08T04:54:38.561Z,24.60
2022-08-08T04:57:02.916Z,24.50
2022-08-08T04:59:52.546Z,24.50
2022-08-08T05:02:41.535Z,24.70
2022-08-08T05:05:45.327Z,24.70
2022-08-08T05:08:34.964Z,24.80
2022-08-08T05:11:26.680Z,24.90
2022-08-08T05:14:20.498Z,24.70
2022-08-08T05:17:10.847Z,24.70
2022-08-08T05:20:10.985Z,24.70
2022-08-08T05:23:05.672Z,24.90
2022-08-08T05:25:59.849Z,25.00
2022-08-08T05:28:56.188Z,25.00
2022-08-08T05:32:05.321Z,25.10
2022-08-08T05:34:55.500Z,25.10
2022-08-08T05:37:52.811Z,25.20
2022-08-08T05:40:48.841Z,25.20
2022-08-08T05:44:03.963Z,25.30
2022-08-08T05:47:02.633Z,25.40
2022-08-08T05:49:54.044Z,25.50
2022-08-08T05:52:44.222Z,25.70
2022-08-08T05:56:11.278Z,25.80
2022-08-08T05:58:54.071Z,25.70
2022-08-08T06:01:57.488Z,25.80
2022-08-08T06:04:54.871Z,25.90
2022-08-08T06:07:46.153Z,26.00
2022-08-08T06:10:39.315Z,26.10
2022-08-08T06:13:36.027Z,26.10
2022-08-08T06:16:38.311Z,26.20
2022-08-08T06:19:27.671Z,26.20
2022-08-08T06:22:32.713Z,26.30
2022-08-08T06:26:34.894Z,26.30
2022-08-08T06:28:33.687Z,26.30
2022-08-08T06:31:52.161Z,26.30
2022-08-08T06:34:40.609Z,26.30
2022-08-08T06:37:37.512Z,26.30
2022-08-08T06:40:31.974Z,26.00
2022-08-08T06:43:30.593Z,25.80
2022-08-08T06:46:24.221Z,25.50
2022-08-08T06:49:14.333Z,25.40
2022-08-08T06:52:05.896Z,25.60
2022-08-08T06:54:58.838Z,25.70
2022-08-08T06:57:56.215Z,25.80
2022-08-08T07:00:49.129Z,25.90
2022-08-08T07:04:35.529Z,25.90
2022-08-08T07:06:58.293Z,26.10
2022-08-08T07:09:59.427Z,26.10
2022-08-08T07:13:04.466Z,26.20
2022-08-08T07:16:04.319Z,26.20
2022-08-08T07:19:07.872Z,26.20
2022-08-08T07:22:05.574Z,26.30
2022-08-08T07:25:14.504Z,26.40
2022-08-08T07:28:13.638Z,26.50
2022-08-08T07:31:10.117Z,26.60
